Time;durP1;ratioP1;P1;durP2;ratioP2;P2;SDS_P1;SDS_P2;PMS_P1;PMS_P2;Temp;Humidity;BMP_temperature;BMP_pressure;BME280_temperature;BME280_humidity;BME280_pressure;Samples;Min_cycle;Max_cycle;Signal;HPM_P1;HPM_P2
2022/04/19 00:01:22;;;;;;;;;;;22.30;40.40;;;;;;6325066;27;19923;-48
2022/04/19 00:04:24;;;;;;;;;;;22.30;40.40;;;;;;6324750;27;20034;-49
2022/04/19 00:07:25;;;;;;;;;;;22.30;40.40;;;;;;6327282;27;20036;-51
2022/04/19 00:10:28;;;;;;;;;;;22.30;40.30;;;;;;6330564;27;19966;-47
2022/04/19 00:13:30;;;;;;;;;;;22.30;40.30;;;;;;6328077;27;21191;-49
2022/04/19 00:16:31;;;;;;;;;;;22.10;40.20;;;;;;6328741;27;20826;-46
2022/04/19 00:19:33;;;;;;;;;;;22.20;40.30;;;;;;6330562;27;19923;-47
2022/04/19 00:22:34;;;;;;;;;;;22.30;40.30;;;;;;6327960;27;20041;-50
2022/04/19 00:25:36;;;;;;;;;;;22.30;40.30;;;;;;6328293;27;20745;-50
2022/04/19 00:28:38;;;;;;;;;;;22.20;40.20;;;;;;6325297;27;19930;-46
2022/04/19 00:31:39;;;;;;;;;;;22.50;40.40;;;;;;6329744;27;20034;-46
2022/04/19 00:34:41;;;;;;;;;;;22.30;40.40;;;;;;6326509;27;19929;-48
2022/04/19 00:37:42;;;;;;;;;;;22.20;40.30;;;;;;6327564;27;19927;-49
2022/04/19 00:40:44;;;;;;;;;;;22.30;40.40;;;;;;6322485;27;19963;-49
2022/04/19 00:43:46;;;;;;;;;;;22.30;40.40;;;;;;6311050;27;20050;-48
2022/04/19 00:46:48;;;;;;;;;;;22.30;40.40;;;;;;6315941;27;20314;-51
2022/04/19 00:49:49;;;;;;;;;;;22.20;40.40;;;;;;6315950;27;19933;-47
2022/04/19 00:52:51;;;;;;;;;;;22.20;40.40;;;;;;6316728;27;20536;-48
2022/04/19 00:55:53;;;;;;;;;;;22.20;40.40;;;;;;6316870;27;20286;-50
2022/04/19 00:58:56;;;;;;;;;;;22.30;40.40;;;;;;6316861;27;19931;-47
2022/04/19 01:01:58;;;;;;;;;;;22.10;40.30;;;;;;6317360;27;20399;-47
2022/04/19 01:05:00;;;;;;;;;;;22.20;40.40;;;;;;6318358;27;20219;-48
2022/04/19 01:08:02;;;;;;;;;;;22.20;40.40;;;;;;6317006;27;20996;-46
2022/04/19 01:14:34;;;;;;;;;;;22.20;40.40;;;;;;6321420;27;20304;-46
2022/04/19 01:17:38;;;;;;;;;;;22.20;40.40;;;;;;6317357;27;19931;-48
2022/04/19 01:20:39;;;;;;;;;;;21.90;40.30;;;;;;6301817;27;20156;-49
2022/04/19 01:23:44;;;;;;;;;;;22.20;40.50;;;;;;6319776;27;20206;-50
2022/04/19 01:26:48;;;;;;;;;;;22.10;40.40;;;;;;6297111;27;20150;-48
2022/04/19 01:29:51;;;;;;;;;;;22.20;40.50;;;;;;6286490;27;20074;-47
2022/04/19 01:32:52;;;;;;;;;;;22.10;40.50;;;;;;6309694;27;20467;-50
2022/04/19 01:35:54;;;;;;;;;;;21.90;40.40;;;;;;6317084;27;20327;-47
2022/04/19 01:38:57;;;;;;;;;;;22.10;40.50;;;;;;6316931;27;21022;-47
2022/04/19 01:42:00;;;;;;;;;;;22.10;40.60;;;;;;6313442;27;20391;-45
2022/04/19 01:45:03;;;;;;;;;;;21.90;40.40;;;;;;6320323;27;19977;-47
2022/04/19 01:48:06;;;;;;;;;;;22.10;40.60;;;;;;6318450;27;20236;-48
2022/04/19 01:51:08;;;;;;;;;;;22.10;40.50;;;;;;6320933;27;20548;-47
2022/04/19 01:54:11;;;;;;;;;;;22.20;40.60;;;;;;6319458;27;19927;-47
2022/04/19 01:57:12;;;;;;;;;;;22.00;40.60;;;;;;6324018;27;19931;-51
2022/04/19 02:00:21;;;;;;;;;;;22.10;40.60;;;;;;6321684;27;20061;-49
2022/04/19 02:03:26;;;;;;;;;;;22.10;40.60;;;;;;6325087;27;19927;-49
2022/04/19 02:06:30;;;;;;;;;;;22.20;40.70;;;;;;6317821;27;20310;-47
2022/04/19 02:09:32;;;;;;;;;;;22.10;40.60;;;;;;6323177;27;20275;-46
2022/04/19 02:12:37;;;;;;;;;;;22.00;40.60;;;;;;6320512;27;20279;-48
2022/04/19 02:15:58;;;;;;;;;;;22.10;40.60;;;;;;6305158;27;20768;-47
2022/04/19 02:19:01;;;;;;;;;;;22.10;40.60;;;;;;6317055;27;20713;-47
2022/04/19 02:22:02;;;;;;;;;;;21.90;40.60;;;;;;6321501;27;20049;-50
2022/04/19 02:25:05;;;;;;;;;;;22.00;40.60;;;;;;6317316;27;20392;-47
2022/04/19 02:28:07;;;;;;;;;;;22.00;40.70;;;;;;6319539;27;20398;-46
2022/04/19 02:31:11;;;;;;;;;;;22.10;40.70;;;;;;6334996;27;19935;-48
2022/04/19 02:34:18;;;;;;;;;;;22.00;40.70;;;;;;6316502;27;20055;-49
2022/04/19 02:37:20;;;;;;;;;;;22.10;40.70;;;;;;6321068;27;20054;-47
2022/04/19 02:40:25;;;;;;;;;;;21.80;40.60;;;;;;6321026;27;19953;-47
2022/04/19 02:43:30;;;;;;;;;;;22.10;40.70;;;;;;6299865;27;19977;-49
2022/04/19 02:46:33;;;;;;;;;;;22.00;40.60;;;;;;6321196;27;19931;-50
2022/04/19 02:49:37;;;;;;;;;;;22.00;40.70;;;;;;6312566;27;20074;-47
2022/04/19 02:52:39;;;;;;;;;;;21.90;40.60;;;;;;6319066;27;19931;-48
2022/04/19 02:55:41;;;;;;;;;;;22.00;40.70;;;;;;6318952;27;19933;-51
2022/04/19 02:58:44;;;;;;;;;;;21.90;40.70;;;;;;6320605;27;19931;-47
2022/04/19 03:01:46;;;;;;;;;;;21.90;40.70;;;;;;6320973;27;20412;-47
2022/04/19 03:04:48;;;;;;;;;;;21.90;40.70;;;;;;6317766;27;20506;-47
2022/04/19 03:07:49;;;;;;;;;;;21.90;40.70;;;;;;6322892;27;20165;-47
2022/04/19 03:10:51;;;;;;;;;;;21.80;40.60;;;;;;6317965;27;20473;-48
2022/04/19 03:13:53;;;;;;;;;;;21.90;40.70;;;;;;6316584;27;20047;-50
2022/04/19 03:16:55;;;;;;;;;;;21.90;40.70;;;;;;6320310;27;20292;-48
2022/04/19 03:19:57;;;;;;;;;;;21.90;40.70;;;;;;6320701;27;20882;-50
2022/04/19 03:29:34;;;;;;;;;;;21.70;40.70;;;;;;6307102;27;19931;-50
2022/04/19 03:32:36;;;;;;;;;;;21.90;40.80;;;;;;6327786;27;20012;-48
2022/04/19 03:35:38;;;;;;;;;;;21.80;40.80;;;;;;6333749;27;19923;-48
2022/04/19 03:38:40;;;;;;;;;;;21.70;40.80;;;;;;6330671;27;20767;-46
2022/04/19 03:41:43;;;;;;;;;;;21.50;41.20;;;;;;6323355;27;20020;-47
2022/04/19 03:44:44;;;;;;;;;;;21.70;40.80;;;;;;6318378;27;19931;-47
2022/04/19 03:47:46;;;;;;;;;;;21.70;40.70;;;;;;6326093;27;20476;-47
2022/04/19 03:50:47;;;;;;;;;;;21.60;40.70;;;;;;6321762;27;19927;-49
2022/04/19 03:53:50;;;;;;;;;;;21.70;40.80;;;;;;6324962;27;19923;-47
2022/04/19 03:56:52;;;;;;;;;;;21.70;40.70;;;;;;6324734;27;19930;-49
2022/04/19 03:59:54;;;;;;;;;;;21.60;40.70;;;;;;6322547;27;20166;-47
2022/04/19 04:03:01;;;;;;;;;;;22.00;40.90;;;;;;6311604;27;20111;-47
2022/04/19 04:06:04;;;;;;;;;;;21.70;40.80;;;;;;6314181;27;20426;-47
2022/04/19 04:09:07;;;;;;;;;;;21.60;40.70;;;;;;6313793;27;20243;-47
2022/04/19 04:12:11;;;;;;;;;;;21.70;40.80;;;;;;6317628;27;20880;-50
2022/04/19 04:15:13;;;;;;;;;;;21.80;40.90;;;;;;6300201;27;20467;-50
2022/04/19 04:18:15;;;;;;;;;;;21.80;40.90;;;;;;6314531;27;20220;-48
2022/04/19 04:21:17;;;;;;;;;;;21.60;40.80;;;;;;6312139;27;19923;-47
2022/04/19 04:24:19;;;;;;;;;;;21.70;40.90;;;;;;6313479;27;20186;-48
2022/04/19 04:27:21;;;;;;;;;;;21.60;40.80;;;;;;6312155;27;20274;-47
2022/04/19 04:30:22;;;;;;;;;;;21.70;40.90;;;;;;6314442;27;20525;-46
2022/04/19 04:33:32;;;;;;;;;;;21.80;40.90;;;;;;6315014;27;20723;-46
2022/04/19 04:36:37;;;;;;;;;;;21.70;40.90;;;;;;6316332;27;19931;-48
2022/04/19 04:39:39;;;;;;;;;;;21.70;40.90;;;;;;6315382;27;19939;-47
2022/04/19 04:42:52;;;;;;;;;;;21.70;40.90;;;;;;6308781;27;19961;-48
2022/04/19 04:52:22;;;;;;;;;;;21.50;40.80;;;;;;6310972;27;20072;-47
2022/04/19 04:55:26;;;;;;;;;;;21.60;40.80;;;;;;6311847;27;20429;-48
2022/04/19 04:58:27;;;;;;;;;;;21.70;40.90;;;;;;6316858;27;20753;-46
2022/04/19 05:01:29;;;;;;;;;;;21.50;40.80;;;;;;6332269;27;19962;-50
2022/04/19 05:04:32;;;;;;;;;;;21.50;40.80;;;;;;6317297;27;19928;-47
2022/04/19 05:07:36;;;;;;;;;;;21.60;40.90;;;;;;6298121;27;19929;-48
2022/04/19 05:10:37;;;;;;;;;;;21.60;40.90;;;;;;6316840;27;21138;-46
2022/04/19 05:13:45;;;;;;;;;;;21.30;40.70;;;;;;6316759;27;19927;-45
2022/04/19 05:16:47;;;;;;;;;;;21.60;40.90;;;;;;6295999;27;20042;-47
2022/04/19 05:19:48;;;;;;;;;;;21.50;40.80;;;;;;6319556;27;19974;-45
2022/04/19 05:22:50;;;;;;;;;;;21.60;40.90;;;;;;6316476;27;19934;-45
2022/04/19 05:25:52;;;;;;;;;;;21.50;40.80;;;;;;6319928;27;20880;-49
2022/04/19 05:28:54;;;;;;;;;;;21.60;40.90;;;;;;6321835;27;19932;-46
2022/04/19 05:31:56;;;;;;;;;;;21.50;40.80;;;;;;6316958;27;20870;-49
2022/04/19 05:34:58;;;;;;;;;;;21.60;40.90;;;;;;6322549;27;20828;-46
2022/04/19 05:37:59;;;;;;;;;;;21.30;40.70;;;;;;6322669;27;19927;-49
2022/04/19 05:41:04;;;;;;;;;;;21.50;40.80;;;;;;6318476;27;20878;-46
2022/04/19 05:44:07;;;;;;;;;;;21.50;40.80;;;;;;6316858;27;19965;-48
2022/04/19 05:47:09;;;;;;;;;;;21.50;40.80;;;;;;6305399;27;19931;-47
2022/04/19 05:50:11;;;;;;;;;;;21.80;40.90;;;;;;6302737;27;20200;-48
2022/04/19 05:53:12;;;;;;;;;;;21.70;40.90;;;;;;6306381;27;19935;-49
2022/04/19 05:56:14;;;;;;;;;;;21.60;40.70;;;;;;6311359;27;19924;-49
2022/04/19 05:59:16;;;;;;;;;;;21.60;40.60;;;;;;6313085;27;19931;-49
2022/04/19 06:05:32;;;;;;;;;;;21.70;40.70;;;;;;6311646;27;20011;-46
2022/04/19 06:08:34;;;;;;;;;;;21.70;40.50;;;;;;6299605;27;19999;-47
2022/04/19 06:11:40;;;;;;;;;;;21.70;40.50;;;;;;6295077;27;19927;-46
2022/04/19 06:14:44;;;;;;;;;;;21.80;40.40;;;;;;6296249;27;20020;-47
2022/04/19 06:17:46;;;;;;;;;;;21.90;40.50;;;;;;6309862;27;20911;-48
2022/04/19 06:21:00;;;;;;;;;;;22.10;40.50;;;;;;6286994;27;20889;-51
2022/04/19 06:24:04;;;;;;;;;;;21.90;40.30;;;;;;6264148;27;19938;-48
2022/04/19 06:27:08;;;;;;;;;;;22.00;40.40;;;;;;6296726;27;20006;-48
2022/04/19 06:30:10;;;;;;;;;;;22.00;40.30;;;;;;6272542;27;20011;-48
2022/04/19 06:33:12;;;;;;;;;;;22.00;40.20;;;;;;6292510;27;19937;-46
2022/04/19 06:36:14;;;;;;;;;;;22.10;40.20;;;;;;6239498;27;19931;-47
2022/04/19 06:39:15;;;;;;;;;;;22.00;40.10;;;;;;6253041;27;20881;-45
2022/04/19 06:42:19;;;;;;;;;;;22.10;40.10;;;;;;6260440;27;19939;-47
2022/04/19 06:45:41;;;;;;;;;;;22.00;40.00;;;;;;6240143;27;19935;-45
2022/04/19 06:48:58;;;;;;;;;;;22.20;40.10;;;;;;6237836;27;20708;-49
2022/04/19 06:51:59;;;;;;;;;;;22.20;40.00;;;;;;6247209;27;19931;-47
2022/04/19 06:55:01;;;;;;;;;;;22.20;40.10;;;;;;6258788;27;20011;-49
2022/04/19 06:58:02;;;;;;;;;;;22.10;40.00;;;;;;6192074;27;19931;-46
2022/04/19 07:01:05;;;;;;;;;;;22.20;40.00;;;;;;6234015;27;19954;-50
2022/04/19 07:04:08;;;;;;;;;;;22.30;40.10;;;;;;6221310;27;19974;-49
2022/04/19 07:07:16;;;;;;;;;;;22.30;40.00;;;;;;6213537;27;19938;-46
2022/04/19 07:10:20;;;;;;;;;;;22.20;39.90;;;;;;6207011;27;20108;-45
2022/04/19 07:13:32;;;;;;;;;;;22.30;40.00;;;;;;6175977;27;20023;-46
2022/04/19 07:16:34;;;;;;;;;;;22.30;40.00;;;;;;6182070;27;20053;-51
2022/04/19 07:29:22;;;;;;;;;;;22.40;39.90;;;;;;6197522;27;19935;-46
2022/04/19 07:32:26;;;;;;;;;;;22.50;40.00;;;;;;6133807;27;19932;-48
2022/04/19 07:35:33;;;;;;;;;;;22.50;39.90;;;;;;6221365;27;24790;-50
2022/04/19 07:38:36;;;;;;;;;;;22.50;40.10;;;;;;6221253;27;19977;-49
2022/04/19 07:41:54;;;;;;;;;;;22.50;39.90;;;;;;6208237;27;19938;-51
2022/04/19 07:44:56;;;;;;;;;;;22.60;40.50;;;;;;6179373;27;19931;-48
2022/04/19 07:47:59;;;;;;;;;;;22.50;39.80;;;;;;6216614;27;20670;-50
2022/04/19 07:51:01;;;;;;;;;;;22.60;39.80;;;;;;6215523;27;32215;-52
2022/04/19 07:54:03;;;;;;;;;;;22.60;39.80;;;;;;6223472;27;21079;-47
2022/04/19 07:57:04;;;;;;;;;;;22.60;39.80;;;;;;6210672;27;20019;-48
2022/04/19 08:00:06;;;;;;;;;;;22.80;39.90;;;;;;6206361;27;19931;-46
2022/04/19 08:03:16;;;;;;;;;;;22.70;39.90;;;;;;6188267;27;22273;-51
2022/04/19 08:06:18;;;;;;;;;;;22.70;39.80;;;;;;6196570;27;20472;-47
2022/04/19 08:09:20;;;;;;;;;;;22.70;39.80;;;;;;6181203;27;21283;-48
2022/04/19 08:12:22;;;;;;;;;;;22.70;39.90;;;;;;6185208;27;19931;-46
2022/04/19 08:15:24;;;;;;;;;;;22.70;39.80;;;;;;6222025;27;20059;-52
2022/04/19 08:18:26;;;;;;;;;;;22.80;39.80;;;;;;6223789;27;21941;-47
2022/04/19 08:21:28;;;;;;;;;;;23.00;39.80;;;;;;6216701;27;19938;-52
2022/04/19 08:24:30;;;;;;;;;;;22.70;39.70;;;;;;6231586;27;21219;-50
2022/04/19 08:27:32;;;;;;;;;;;22.70;39.70;;;;;;6235157;27;19982;-48
2022/04/19 08:30:33;;;;;;;;;;;22.90;39.80;;;;;;6222428;27;19938;-51
2022/04/19 08:33:36;;;;;;;;;;;22.90;39.80;;;;;;6218097;27;19931;-50
2022/04/19 08:36:38;;;;;;;;;;;22.90;39.80;;;;;;6233386;27;20899;-47
2022/04/19 08:39:40;;;;;;;;;;;23.10;39.80;;;;;;6219839;27;19951;-49
2022/04/19 08:42:42;;;;;;;;;;;22.90;40.30;;;;;;6220976;27;19968;-49
2022/04/19 08:45:45;;;;;;;;;;;22.80;39.70;;;;;;6220706;27;20078;-50
2022/04/19 08:48:47;;;;;;;;;;;22.80;39.60;;;;;;6217931;27;20023;-52
2022/04/19 08:51:49;;;;;;;;;;;22.90;39.60;;;;;;6238774;27;20053;-51
2022/04/19 08:58:09;;;;;;;;;;;23.00;39.60;;;;;;6213868;27;19935;-55
2022/04/19 09:01:10;;;;;;;;;;;23.10;39.70;;;;;;6205859;27;20077;-51
2022/04/19 09:04:12;;;;;;;;;;;23.00;39.60;;;;;;6212432;27;19994;-48
2022/04/19 09:07:14;;;;;;;;;;;23.00;39.60;;;;;;6229508;27;19931;-56
2022/04/19 09:10:16;;;;;;;;;;;23.10;39.70;;;;;;6206810;27;19970;-48
2022/04/19 09:13:21;;;;;;;;;;;23.00;39.60;;;;;;6222377;27;20885;-47
2022/04/19 09:16:24;;;;;;;;;;;23.00;39.60;;;;;;6203103;27;20070;-49
2022/04/19 09:19:27;;;;;;;;;;;23.00;39.50;;;;;;6210605;27;19931;-48
2022/04/19 09:22:30;;;;;;;;;;;23.10;39.60;;;;;;6197830;27;20841;-48
2022/04/19 09:25:32;;;;;;;;;;;23.10;39.60;;;;;;6193097;27;20035;-49
2022/04/19 09:28:34;;;;;;;;;;;23.20;39.60;;;;;;6155110;27;19932;-49
2022/04/19 09:31:35;;;;;;;;;;;23.00;39.60;;;;;;6177774;27;22247;-49
2022/04/19 09:34:38;;;;;;;;;;;23.10;39.60;;;;;;6175640;27;19980;-49
2022/04/19 09:37:47;;;;;;;;;;;23.10;39.60;;;;;;6167443;27;19932;-49
2022/04/19 09:40:48;;;;;;;;;;;23.10;39.60;;;;;;6161633;27;19971;-49
2022/04/19 09:44:10;;;;;;;;;;;23.10;39.60;;;;;;6158527;27;19946;-56
2022/04/19 09:47:12;;;;;;;;;;;23.20;39.60;;;;;;6182400;27;19931;-51
2022/04/19 09:50:14;;;;;;;;;;;23.20;39.60;;;;;;6169582;27;20978;-52
2022/04/19 09:53:18;;;;;;;;;;;23.20;39.50;;;;;;6183888;27;19999;-51
2022/04/19 09:56:20;;;;;;;;;;;23.10;39.50;;;;;;6193076;27;21965;-50
2022/04/19 09:59:44;;;;;;;;;;;23.20;39.50;;;;;;6147298;27;19932;-48
2022/04/19 10:09:21;;;;;;;;;;;23.20;39.50;;;;;;6177545;27;20331;-49
2022/04/19 10:12:23;;;;;;;;;;;23.20;39.50;;;;;;6191590;27;19931;-47
2022/04/19 10:15:25;;;;;;;;;;;23.20;39.50;;;;;;6205668;27;20037;-46
2022/04/19 10:18:27;;;;;;;;;;;23.20;39.40;;;;;;6204516;27;19970;-48
2022/04/19 10:21:34;;;;;;;;;;;23.20;39.50;;;;;;6184228;27;21347;-47
2022/04/19 10:24:44;;;;;;;;;;;23.20;39.40;;;;;;6222912;27;19974;-48
2022/04/19 10:27:49;;;;;;;;;;;23.20;39.40;;;;;;6215965;27;19945;-50
2022/04/19 10:30:52;;;;;;;;;;;23.30;39.50;;;;;;6188051;27;20042;-51
2022/04/19 10:33:54;;;;;;;;;;;23.30;39.50;;;;;;6195911;27;19931;-52
2022/04/19 10:37:04;;;;;;;;;;;23.30;39.50;;;;;;6222014;27;21237;-49
2022/04/19 10:40:06;;;;;;;;;;;23.30;39.40;;;;;;6201119;27;20062;-51
2022/04/19 10:43:14;;;;;;;;;;;23.30;39.50;;;;;;6232934;27;20975;-50
2022/04/19 10:46:17;;;;;;;;;;;23.50;39.50;;;;;;6236290;27;19967;-49
2022/04/19 10:49:22;;;;;;;;;;;23.30;40.00;;;;;;6222188;27;20908;-51
2022/04/19 10:52:38;;;;;;;;;;;23.10;39.20;;;;;;6242512;27;19950;-51
2022/04/19 10:55:41;;;;;;;;;;;23.30;39.40;;;;;;6239666;27;20103;-51
2022/04/19 10:58:44;;;;;;;;;;;23.30;39.30;;;;;;6224793;27;19939;-52
2022/04/19 11:01:46;;;;;;;;;;;23.30;39.40;;;;;;6250810;27;19931;-50
2022/04/19 11:04:47;;;;;;;;;;;23.30;39.30;;;;;;6240629;27;19957;-51
2022/04/19 11:07:54;;;;;;;;;;;23.30;39.30;;;;;;6234158;27;21568;-54
2022/04/19 11:11:20;;;;;;;;;;;23.30;39.30;;;;;;6240739;27;19932;-55
2022/04/19 11:14:43;;;;;;;;;;;23.40;39.30;;;;;;6233306;27;19932;-51
2022/04/19 11:17:45;;;;;;;;;;;23.30;39.30;;;;;;6230501;27;21951;-51
2022/04/19 11:20:46;;;;;;;;;;;23.40;39.30;;;;;;6225333;27;20537;-50
2022/04/19 11:23:48;;;;;;;;;;;23.10;39.10;;;;;;6240992;27;20054;-52
2022/04/19 11:26:50;;;;;;;;;;;23.40;39.30;;;;;;6224189;27;21475;-51
2022/04/19 11:29:52;;;;;;;;;;;23.40;39.20;;;;;;6240307;27;20893;-50
2022/04/19 11:32:55;;;;;;;;;;;23.40;39.20;;;;;;6222449;27;19971;-47
2022/04/19 11:35:57;;;;;;;;;;;23.40;39.30;;;;;;6224994;27;19932;-49
2022/04/19 11:38:58;;;;;;;;;;;23.40;39.20;;;;;;6221475;27;19935;-50
2022/04/19 11:48:33;;;;;;;;;;;23.40;39.10;;;;;;6218671;27;19932;-48
2022/04/19 11:51:36;;;;;;;;;;;23.40;39.10;;;;;;6226566;27;20013;-53
2022/04/19 11:54:37;;;;;;;;;;;23.40;39.10;;;;;;6178919;27;20034;-53
2022/04/19 11:57:41;;;;;;;;;;;23.60;39.20;;;;;;6218126;27;19961;-53
2022/04/19 12:00:43;;;;;;;;;;;23.50;39.10;;;;;;6195251;27;20016;-51
2022/04/19 12:03:44;;;;;;;;;;;23.50;39.10;;;;;;6181051;27;20058;-51
2022/04/19 12:06:47;;;;;;;;;;;23.50;39.10;;;;;;6186036;27;19932;-49
2022/04/19 12:09:48;;;;;;;;;;;23.50;39.10;;;;;;6201495;27;21462;-52
2022/04/19 12:12:50;;;;;;;;;;;23.50;39.00;;;;;;6203811;27;20066;-52
2022/04/19 12:15:52;;;;;;;;;;;23.60;39.10;;;;;;6189532;27;20055;-51
2022/04/19 12:18:54;;;;;;;;;;;23.60;39.10;;;;;;6195142;27;20050;-52
2022/04/19 12:21:56;;;;;;;;;;;23.50;39.00;;;;;;6211972;27;20137;-48
2022/04/19 12:24:58;;;;;;;;;;;23.50;39.00;;;;;;6191764;27;20271;-48
2022/04/19 12:28:00;;;;;;;;;;;23.60;39.10;;;;;;6204624;27;20469;-48
2022/04/19 12:31:02;;;;;;;;;;;23.60;39.00;;;;;;6203041;27;19989;-50
2022/04/19 12:34:04;;;;;;;;;;;23.60;39.10;;;;;;6202802;27;19938;-49
2022/04/19 12:37:06;;;;;;;;;;;23.60;39.00;;;;;;6211732;27;19931;-48
2022/04/19 12:40:07;;;;;;;;;;;23.50;38.90;;;;;;6203095;27;19939;-50
2022/04/19 12:43:09;;;;;;;;;;;23.40;38.90;;;;;;6205206;27;19962;-48
2022/04/19 12:46:14;;;;;;;;;;;23.60;39.00;;;;;;6213220;27;19940;-47
2022/04/19 12:49:20;;;;;;;;;;;23.70;39.00;;;;;;6200758;27;19938;-54
2022/04/19 12:52:29;;;;;;;;;;;23.60;39.00;;;;;;6198465;27;19932;-49
2022/04/19 12:58:56;;;;;;;;;;;23.60;38.90;;;;;;6187428;27;20046;-51
2022/04/19 13:01:59;;;;;;;;;;;23.60;38.90;;;;;;6184966;27;19979;-50
2022/04/19 13:05:00;;;;;;;;;;;23.70;39.60;;;;;;6183753;27;19935;-50
2022/04/19 13:14:32;;;;;;;;;;;23.70;38.90;;;;;;6184720;27;20063;-53
2022/04/19 13:17:36;;;;;;;;;;;23.50;38.70;;;;;;6189777;27;19931;-50
2022/04/19 13:20:37;;;;;;;;;;;23.70;38.90;;;;;;6159835;27;21287;-50
2022/04/19 13:23:39;;;;;;;;;;;23.70;38.70;;;;;;6178118;27;19938;-49
2022/04/19 13:26:40;;;;;;;;;;;23.70;38.90;;;;;;6171403;27;25793;-51
2022/04/19 13:29:42;;;;;;;;;;;23.60;38.70;;;;;;6175829;27;19931;-51
2022/04/19 13:32:44;;;;;;;;;;;23.70;38.70;;;;;;6212601;27;19935;-51
2022/04/19 13:35:46;;;;;;;;;;;23.80;38.70;;;;;;6182270;27;20051;-48
2022/04/19 13:38:47;;;;;;;;;;;23.70;38.70;;;;;;6176774;27;19931;-48
2022/04/19 13:41:49;;;;;;;;;;;23.80;38.80;;;;;;6197946;27;21262;-51
2022/04/19 13:44:50;;;;;;;;;;;23.70;38.60;;;;;;6181810;27;20120;-48
2022/04/19 13:47:52;;;;;;;;;;;23.70;38.60;;;;;;6201065;27;20939;-49
2022/04/19 13:50:54;;;;;;;;;;;23.80;38.70;;;;;;6194417;27;19931;-49
2022/04/19 13:53:56;;;;;;;;;;;23.80;38.60;;;;;;6201730;27;20011;-49
2022/04/19 13:57:01;;;;;;;;;;;23.60;38.60;;;;;;6160627;27;20180;-51
2022/04/19 14:00:02;;;;;;;;;;;23.80;38.60;;;;;;6177894;27;19936;-48
2022/04/19 14:03:14;;;;;;;;;;;23.80;38.60;;;;;;6156080;27;20008;-47
2022/04/19 14:06:15;;;;;;;;;;;23.80;38.60;;;;;;6169582;27;19931;-47
2022/04/19 14:09:17;;;;;;;;;;;23.80;38.70;;;;;;6151229;27;19967;-50
2022/04/19 14:12:20;;;;;;;;;;;23.80;38.60;;;;;;6170769;27;20017;-49
2022/04/19 14:15:22;;;;;;;;;;;23.80;38.50;;;;;;6171064;27;21996;-52
2022/04/19 14:18:24;;;;;;;;;;;23.80;38.50;;;;;;6181968;27;21351;-49
2022/04/19 14:21:25;;;;;;;;;;;23.90;38.50;;;;;;6160123;27;20653;-52
2022/04/19 14:24:27;;;;;;;;;;;23.90;38.50;;;;;;6170153;27;19935;-50
2022/04/19 14:27:28;;;;;;;;;;;23.80;38.50;;;;;;6183590;27;20956;-48
2022/04/19 14:33:43;;;;;;;;;;;23.80;38.50;;;;;;6163325;27;19945;-50
2022/04/19 14:36:44;;;;;;;;;;;23.80;38.40;;;;;;6171366;27;20839;-49
2022/04/19 14:39:46;;;;;;;;;;;23.80;38.40;;;;;;6173839;27;19931;-48
2022/04/19 14:42:47;;;;;;;;;;;23.90;38.60;;;;;;6189748;27;21443;-56
2022/04/19 14:45:48;;;;;;;;;;;24.00;38.50;;;;;;6157598;27;19932;-59
2022/04/19 14:48:50;;;;;;;;;;;23.80;38.40;;;;;;6147612;27;19985;-55
2022/04/19 14:55:09;;;;;;;;;;;23.70;38.30;;;;;;6171907;27;19996;-54
2022/04/19 14:58:10;;;;;;;;;;;23.90;38.40;;;;;;6150550;27;19977;-47
2022/04/19 15:01:13;;;;;;;;;;;23.90;39.00;;;;;;6148270;27;20016;-49
2022/04/19 15:04:15;;;;;;;;;;;23.90;38.30;;;;;;6167389;27;19931;-48
2022/04/19 15:07:21;;;;;;;;;;;24.00;38.60;;;;;;6188091;27;19981;-48
2022/04/19 15:10:25;;;;;;;;;;;23.80;38.30;;;;;;6187275;27;19971;-50
2022/04/19 15:13:46;;;;;;;;;;;23.90;38.30;;;;;;6153305;27;19938;-47
2022/04/19 15:16:48;;;;;;;;;;;24.00;38.40;;;;;;6189139;27;19938;-46
2022/04/19 15:19:50;;;;;;;;;;;24.00;38.40;;;;;;6179863;27;21162;-50
2022/04/19 15:22:51;;;;;;;;;;;24.00;38.30;;;;;;6198016;27;19941;-48
2022/04/19 15:25:53;;;;;;;;;;;23.90;38.20;;;;;;6191809;27;21802;-48
2022/04/19 15:28:54;;;;;;;;;;;24.00;38.30;;;;;;6188934;27;19931;-47
2022/04/19 15:31:56;;;;;;;;;;;23.90;38.20;;;;;;6157620;27;19931;-48
2022/04/19 15:34:58;;;;;;;;;;;24.00;38.20;;;;;;6157674;27;19986;-51
2022/04/19 15:37:59;;;;;;;;;;;24.00;38.20;;;;;;6186406;27;19986;-46
2022/04/19 15:41:01;;;;;;;;;;;23.90;38.20;;;;;;6181523;27;21034;-50
2022/04/19 15:44:03;;;;;;;;;;;23.70;38.00;;;;;;6200750;27;19931;-48
2022/04/19 15:47:04;;;;;;;;;;;24.00;38.30;;;;;;6208542;27;19938;-48
2022/04/19 15:50:07;;;;;;;;;;;24.00;38.10;;;;;;6211251;27;19937;-48
2022/04/19 15:53:08;;;;;;;;;;;24.00;38.10;;;;;;6202593;27;20897;-49
2022/04/19 15:56:10;;;;;;;;;;;23.90;38.10;;;;;;6211871;27;19938;-49
2022/04/19 15:59:12;;;;;;;;;;;23.90;38.20;;;;;;6218871;27;19931;-46
2022/04/19 16:02:13;;;;;;;;;;;23.90;38.10;;;;;;6195024;27;19938;-47
2022/04/19 16:05:16;;;;;;;;;;;23.90;38.10;;;;;;6205195;27;20033;-47
2022/04/19 16:08:17;;;;;;;;;;;23.90;38.10;;;;;;6201643;27;20737;-51
2022/04/19 16:11:19;;;;;;;;;;;23.90;38.10;;;;;;6210171;27;20069;-48
2022/04/19 16:14:20;;;;;;;;;;;23.80;38.10;;;;;;6216385;27;19931;-51
2022/04/19 16:23:52;;;;;;;;;;;23.90;38.00;;;;;;6234522;27;19968;-47
2022/04/19 16:26:53;;;;;;;;;;;24.00;38.10;;;;;;6225233;27;19953;-51
2022/04/19 16:29:55;;;;;;;;;;;23.70;37.90;;;;;;6249125;27;19931;-48
2022/04/19 16:32:57;;;;;;;;;;;23.80;37.90;;;;;;6238092;27;20485;-51
2022/04/19 16:35:59;;;;;;;;;;;23.70;37.90;;;;;;6240324;27;20858;-49
2022/04/19 16:39:00;;;;;;;;;;;23.90;38.00;;;;;;6239855;27;20076;-51
2022/04/19 16:42:02;;;;;;;;;;;23.90;37.90;;;;;;6241541;27;19938;-51
2022/04/19 16:45:03;;;;;;;;;;;24.00;38.00;;;;;;6243857;27;19963;-50
2022/04/19 16:48:06;;;;;;;;;;;23.90;37.90;;;;;;6248005;27;19971;-52
2022/04/19 16:51:08;;;;;;;;;;;23.80;37.80;;;;;;6232679;27;19931;-50
2022/04/19 16:54:11;;;;;;;;;;;23.90;37.90;;;;;;6251774;27;19938;-48
2022/04/19 16:57:13;;;;;;;;;;;23.90;37.90;;;;;;6258600;27;19938;-48
2022/04/19 17:00:14;;;;;;;;;;;23.90;37.90;;;;;;6256206;27;19971;-50
2022/04/19 17:06:33;;;;;;;;;;;23.90;37.80;;;;;;6252705;27;20276;-50
2022/04/19 17:09:35;;;;;;;;;;;23.90;37.80;;;;;;6267567;27;19931;-51
2022/04/19 17:12:39;;;;;;;;;;;23.80;37.80;;;;;;6273554;27;19973;-49
2022/04/19 17:15:42;;;;;;;;;;;23.90;37.90;;;;;;6263568;27;20904;-51
2022/04/19 17:18:44;;;;;;;;;;;23.90;37.80;;;;;;6273701;27;19927;-49
2022/04/19 17:21:45;;;;;;;;;;;23.80;37.80;;;;;;6263063;27;19938;-47
2022/04/19 17:24:47;;;;;;;;;;;23.90;37.70;;;;;;6268076;27;19932;-47
2022/04/19 17:27:49;;;;;;;;;;;23.90;37.70;;;;;;6275748;27;19931;-51
2022/04/19 17:30:53;;;;;;;;;;;23.90;37.80;;;;;;6277141;27;21209;-52
2022/04/19 17:33:56;;;;;;;;;;;23.80;37.70;;;;;;6280799;27;20727;-50
2022/04/19 17:36:58;;;;;;;;;;;24.00;37.70;;;;;;6279640;27;19935;-52
2022/04/19 17:40:01;;;;;;;;;;;23.90;37.70;;;;;;6269035;28;19931;-51
2022/04/19 17:43:03;;;;;;;;;;;23.90;37.70;;;;;;6277947;27;20051;-49
2022/04/19 17:46:04;;;;;;;;;;;23.90;37.60;;;;;;6281678;27;19941;-53
2022/04/19 17:49:06;;;;;;;;;;;23.90;37.70;;;;;;6286229;27;20054;-52
2022/04/19 17:58:38;;;;;;;;;;;24.10;37.70;;;;;;6283290;27;20152;-53
2022/04/19 18:01:41;;;;;;;;;;;23.90;37.60;;;;;;6284926;27;20833;-53
2022/04/19 18:04:42;;;;;;;;;;;23.80;37.50;;;;;;6282660;27;20036;-52
2022/04/19 18:07:44;;;;;;;;;;;23.90;37.50;;;;;;6287087;27;19931;-53
2022/04/19 18:10:46;;;;;;;;;;;23.90;37.50;;;;;;6281942;27;20842;-53
2022/04/19 18:13:47;;;;;;;;;;;24.00;37.60;;;;;;6279123;27;20043;-51
2022/04/19 18:16:49;;;;;;;;;;;23.80;37.50;;;;;;6283548;27;19931;-50
2022/04/19 18:19:50;;;;;;;;;;;23.90;37.50;;;;;;6284228;27;19963;-51
2022/04/19 18:26:08;;;;;;;;;;;24.10;37.70;;;;;;6287387;27;19978;-51
2022/04/19 18:29:11;;;;;;;;;;;24.00;37.60;;;;;;6269233;27;19938;-51
2022/04/19 18:32:13;;;;;;;;;;;24.00;37.50;;;;;;6278089;27;20000;-52
2022/04/19 18:35:14;;;;;;;;;;;23.80;37.50;;;;;;6287281;27;20802;-48
2022/04/19 18:38:20;;;;;;;;;;;23.80;37.50;;;;;;6283951;27;19958;-52
2022/04/19 18:41:21;;;;;;;;;;;23.90;37.60;;;;;;6288926;27;19932;-50
2022/04/19 18:44:23;;;;;;;;;;;23.90;37.60;;;;;;6290325;27;20034;-56
2022/04/19 18:47:24;;;;;;;;;;;23.80;37.60;;;;;;6287834;27;20143;-54
2022/04/19 18:50:25;;;;;;;;;;;23.80;37.70;;;;;;6283704;27;20909;-49
2022/04/19 18:53:27;;;;;;;;;;;23.60;37.60;;;;;;6291967;27;20304;-49
2022/04/19 18:56:29;;;;;;;;;;;23.70;37.70;;;;;;6282028;27;19930;-49
2022/04/19 18:59:30;;;;;;;;;;;23.80;37.80;;;;;;6282883;27;19931;-52
2022/04/19 19:02:32;;;;;;;;;;;23.80;37.80;;;;;;6284312;27;20881;-53
2022/04/19 19:05:34;;;;;;;;;;;23.70;37.70;;;;;;6288895;27;19932;-52